Boo Sonier — WDG3281 — position and weather

sailwx.info

Track history (hours):
 
Tides and Currents Weather Stations Pressure Air Temp Water Temp Dewpoint Dewpoint Depression Visibility Wind Speed Wind Dir Waves Ship Positions

Boo Sonier

Owner: LeBeouf Bros. Towing, LLC, Houma, LA. More information available from US FCC via Universal Licensing System and Coast Guard Vessel Documentation Center.

Last reported at 2014-Oct-24 00:34 UTC. Time now 2014-Oct-24 12:01 UTC.
Position N 29°59' W 090°01'.

Length 21 m.

Type: Tug. MMSI: 367524420.

Date/timePositionNaut miles runAvg speedWind from/ knotsBaromVisibWave heightAir tempDewpointWater temp
2014-Oct-24 00:34N 29°59' W 090°01'  
2014-Oct-19 02:13N 29°37' W 091°02'4 5.7
2014-Oct-19 01:33N 29°38' W 091°06'5 4.6
2014-Oct-19 00:33N 29°41' W 091°10'5 4.8
2014-Oct-18 23:33N 29°39' W 091°16'3 0.2
2014-Oct-18 09:33N 29°38' W 091°19'7 6.9
2014-Oct-18 08:33N 29°41' W 091°12'2 2.2
2014-Oct-18 07:33N 29°41' W 091°10'3 2.6
2014-Oct-18 06:33N 29°39' W 091°08'6 5.3
2014-Oct-18 05:30N 29°37' W 091°01'  
Track history (hours):
 
Tides and Currents Weather Stations Pressure Air Temp Water Temp Dewpoint Dewpoint Depression Visibility Wind Speed Wind Dir Waves Ship Positions

Boo Sonier

Owner: LeBeouf Bros. Towing, LLC, Houma, LA. More information available from US FCC via Universal Licensing System and Coast Guard Vessel Documentation Center.

Last reported at 2014-Oct-24 00:34 UTC. Time now 2014-Oct-24 12:01 UTC.
Position N 29°59' W 090°01'.

Length 21 m.

Type: Tug. MMSI: 367524420.

Date/timePositionNaut miles runAvg speedWind from/ knotsBaromVisibWave heightAir tempDewpointWater temp
2014-Oct-24 00:34N 29°59' W 090°01'  
2014-Oct-19 02:13N 29°37' W 091°02'4 5.7
2014-Oct-19 01:33N 29°38' W 091°06'5 4.6
2014-Oct-19 00:33N 29°41' W 091°10'5 4.8
2014-Oct-18 23:33N 29°39' W 091°16'3 0.2
2014-Oct-18 09:33N 29°38' W 091°19'7 6.9
2014-Oct-18 08:33N 29°41' W 091°12'2 2.2
2014-Oct-18 07:33N 29°41' W 091°10'3 2.6
2014-Oct-18 06:33N 29°39' W 091°08'6 5.3
2014-Oct-18 05:30N 29°37' W 091°01'  

Dump ship's entire track history